Time;durP1;ratioP1;P1;durP2;ratioP2;P2;SDS_P1;SDS_P2;PMS_P1;PMS_P2;Temp;Humidity;BMP_temperature;BMP_pressure;BME280_temperature;BME280_humidity;BME280_pressure;Samples;Min_cycle;Max_cycle;Signal;HPM_P1;HPM_P2
2021/11/07 00:00:07;;;;;;;66.70;47.67;;;256.00;2252.80;;;;;;5095657;28;20020;-77
2021/11/07 00:05:33;;;;;;;77.63;47.45;;;256.00;2252.80;;;;;;5095835;28;20165;-77
2021/11/07 00:10:49;;;;;;;69.20;47.47;;;256.00;2252.80;;;;;;5115869;28;20169;-78
2021/11/07 00:13:21;;;;;;;69.18;44.08;;;256.00;2252.80;;;;;;5114846;28;20024;-78
2021/11/07 00:15:48;;;;;;;65.15;43.58;;;256.00;2252.80;;;;;;5096484;28;20074;-78
2021/11/07 00:18:24;;;;;;;64.55;44.00;;;256.10;2252.80;;;;;;5115661;28;20847;-78
2021/11/07 00:21:07;;;;;;;67.80;44.95;;;256.10;2252.80;;;;;;5097144;28;20058;-79
2021/11/07 00:26:30;;;;;;;66.63;44.15;;;256.20;2252.80;;;;;;5115377;28;20026;-77
2021/11/07 00:29:06;;;;;;;63.58;41.95;;;256.20;2252.80;;;;;;5115392;28;20057;-77
2021/11/07 00:36:58;;;;;;;63.72;42.00;;;256.00;2252.80;;;;;;5115149;28;20038;-77
2021/11/07 00:42:13;;;;;;;64.05;42.90;;;256.00;2252.80;;;;;;5095423;28;20792;-77
2021/11/07 00:47:57;;;;;;;66.63;43.47;;;256.00;2252.80;;;;;;5093842;28;20031;-77
2021/11/07 00:50:13;;;;;;;64.55;42.45;;;256.00;2252.80;;;;;;5089501;28;20081;-77
2021/11/07 00:52:55;;;;;;;65.38;43.03;;;256.10;2252.80;;;;;;5093747;28;20422;-77
2021/11/07 00:55:37;;;;;;;74.60;47.80;;;256.10;2252.80;;;;;;5081962;28;20043;-77
2021/11/07 00:58:14;;;;;;;72.70;44.20;;;256.10;2252.80;;;;;;5114751;28;20026;-77
2021/11/07 01:00:58;;;;;;;;;;;256.10;2252.80;;;;;;5096738;28;20404;-77
2021/11/07 01:03:25;;;;;;;70.78;44.65;;;256.10;2252.80;;;;;;5096491;28;19907;-77
2021/11/07 01:05:50;;;;;;;73.95;46.92;;;256.10;2252.80;;;;;;5096356;28;20019;-77
2021/11/07 01:08:16;;;;;;;65.68;45.17;;;256.10;2252.80;;;;;;5096439;28;20023;-77
2021/11/07 01:10:42;;;;;;;73.10;46.80;;;256.10;2252.80;;;;;;5096309;28;20042;-77
2021/11/07 01:13:08;;;;;;;66.35;45.65;;;256.10;2252.80;;;;;;5096029;28;20038;-78
2021/11/07 01:15:36;;;;;;;68.75;45.00;;;256.10;2252.80;;;;;;5095841;28;20453;-78
2021/11/07 01:18:02;;;;;;;69.35;46.45;;;256.10;2252.80;;;;;;5113944;28;20073;-77
2021/11/07 01:20:30;;;;;;;78.75;50.42;;;256.10;2252.80;;;;;;5114289;28;20027;-77
2021/11/07 01:25:35;;;;;;;82.03;53.87;;;256.00;2252.80;;;;;;5114762;28;20023;-77
2021/11/07 01:28:03;;;;;;;80.63;48.35;;;256.00;2252.80;;;;;;5095924;28;20502;-77
2021/11/07 01:30:32;;;;;;;72.40;48.10;;;256.00;2252.80;;;;;;5096149;28;20153;-77
2021/11/07 01:33:03;;;;;;;77.35;49.35;;;256.10;2252.80;;;;;;5114075;28;20027;-77
2021/11/07 01:38:10;;;;;;;88.95;56.67;;;256.00;2252.80;;;;;;5113933;28;20054;-77
2021/11/07 01:40:44;;;;;;;84.25;54.25;;;231.10;2252.80;;;;;;5114042;28;20529;-77
2021/11/07 01:43:11;;;;;;;130.65;76.60;;;231.20;2252.80;;;;;;5113978;28;20016;-77
2021/11/07 01:45:43;;;;;;;101.35;59.53;;;231.00;2252.80;;;;;;5113616;28;20032;-77
2021/11/07 01:48:15;;;;;;;93.82;55.10;;;231.10;2252.80;;;;;;5087437;28;20485;-77
2021/11/07 01:50:46;;;;;;;87.95;54.92;;;231.30;2252.80;;;;;;5075474;28;20125;-76
2021/11/07 01:55:57;;;;;;;90.85;55.40;;;256.00;2252.80;;;;;;5103644;28;20035;-77
2021/11/07 01:58:27;;;;;;;87.57;54.10;;;256.00;2252.80;;;;;;5089266;28;20020;-77
2021/11/07 02:00:54;;;;;;;88.00;54.88;;;256.00;2252.80;;;;;;5110468;28;20049;-77
2021/11/07 02:03:20;;;;;;;91.03;57.10;;;256.00;2252.80;;;;;;5107434;28;20028;-77
2021/11/07 02:05:46;;;;;;;86.20;54.33;;;231.30;2252.80;;;;;;5104546;28;20019;-77
2021/11/07 02:08:12;;;;;;;107.47;64.90;;;231.30;2252.80;;;;;;5104468;28;20480;-77
2021/11/07 02:10:39;;;;;;;92.18;57.72;;;231.20;2252.80;;;;;;5086247;28;20081;-77
2021/11/07 02:13:07;;;;;;;84.53;52.05;;;231.20;2252.80;;;;;;5104296;28;20158;-77
2021/11/07 02:15:34;;;;;;;83.10;51.63;;;231.30;2252.80;;;;;;5085948;28;20079;-77
2021/11/07 02:18:00;;;;;;;77.22;50.35;;;256.00;2252.80;;;;;;5079743;28;20028;-77
2021/11/07 02:20:35;;;;;;;80.75;53.20;;;256.00;2252.80;;;;;;5082198;28;20030;-77
2021/11/07 02:23:08;;;;;;;74.53;48.00;;;231.30;2252.80;;;;;;5083674;28;20051;-77
2021/11/07 02:25:35;;;;;;;82.63;54.95;;;231.30;2252.80;;;;;;5112625;28;20024;-77
2021/11/07 02:28:02;;;;;;;77.13;49.30;;;231.30;2252.80;;;;;;5083290;28;20078;-77
2021/11/07 02:30:29;;;;;;;78.40;51.13;;;231.30;2252.80;;;;;;5111940;28;20476;-77
2021/11/07 02:32:55;;;;;;;74.75;47.75;;;231.30;2252.80;;;;;;5094395;28;20035;-77
2021/11/07 02:35:21;;;;;;;76.40;49.97;;;256.00;2252.80;;;;;;5084211;28;20039;-77
2021/11/07 02:37:48;;;;;;;74.35;47.53;;;231.20;2252.80;;;;;;5093735;28;20031;-77
2021/11/07 02:40:14;;;;;;;71.90;47.53;;;231.30;2252.80;;;;;;5094111;28;20107;-76
2021/11/07 02:42:43;;;;;;;72.05;47.85;;;231.20;2252.80;;;;;;5098958;28;20023;-76
2021/11/07 02:45:12;;;;;;;77.47;47.13;;;231.20;2252.80;;;;;;5092462;28;20597;-76
2021/11/07 02:47:38;;;;;;;72.63;48.85;;;231.20;2252.80;;;;;;5094518;28;20036;-76
2021/11/07 02:50:05;;;;;;;72.13;45.72;;;231.20;2252.80;;;;;;5092695;28;20127;-77
2021/11/07 02:52:32;;;;;;;70.60;44.70;;;231.20;2252.80;;;;;;5091685;28;20028;-77
2021/11/07 02:54:58;;;;;;;66.93;46.25;;;231.20;2252.80;;;;;;5094297;28;20042;-77
2021/11/07 02:57:24;;;;;;;68.85;46.67;;;231.20;2252.80;;;;;;5087915;28;20081;-76
2021/11/07 03:00:03;;;;;;;69.85;47.35;;;231.10;2252.80;;;;;;5084461;28;20028;-76
2021/11/07 03:02:30;;;;;;;73.18;47.25;;;231.10;2252.80;;;;;;5074115;28;20028;-76
2021/11/07 03:04:56;;;;;;;75.72;48.25;;;231.10;2252.80;;;;;;5080030;28;20069;-77
2021/11/07 03:07:23;;;;;;;82.75;52.03;;;231.10;2252.80;;;;;;5112103;28;20016;-76
2021/11/07 03:09:49;;;;;;;90.80;56.28;;;231.10;2252.80;;;;;;5093109;28;20031;-77
2021/11/07 03:12:16;;;;;;;87.25;52.70;;;231.00;2252.80;;;;;;5112378;28;20111;-76
2021/11/07 03:14:49;;;;;;;94.85;59.67;;;231.00;2252.80;;;;;;5112549;28;20019;-77
2021/11/07 03:17:19;;;;;;;92.10;60.35;;;230.90;2252.80;;;;;;5089323;28;20050;-77
2021/11/07 03:19:46;;;;;;;74.95;52.47;;;230.90;2252.80;;;;;;5112591;28;20016;-77
2021/11/07 03:22:15;;;;;;;78.18;51.90;;;230.90;2252.80;;;;;;5112682;28;20027;-78
2021/11/07 03:24:42;;;;;;;75.47;49.67;;;231.00;2252.80;;;;;;5093717;28;20027;-77
2021/11/07 03:27:18;;;;;;;83.10;53.72;;;231.00;2252.80;;;;;;5094429;28;20019;-77
2021/11/07 03:29:49;;;;;;;81.28;50.72;;;231.00;2252.80;;;;;;5094365;28;20464;-77
2021/11/07 03:32:27;;;;;;;72.28;46.65;;;231.00;2252.80;;;;;;5112367;28;20035;-77
2021/11/07 03:34:56;;;;;;;66.45;42.83;;;231.00;2252.80;;;;;;5112718;28;20023;-77
2021/11/07 03:37:25;;;;;;;65.45;39.90;;;231.00;2252.80;;;;;;5094011;28;20073;-77
2021/11/07 03:39:54;;;;;;;66.13;40.95;;;230.90;2252.80;;;;;;5112392;28;20099;-78
2021/11/07 03:42:20;;;;;;;57.25;37.20;;;230.70;2252.80;;;;;;5096750;28;20020;-77
2021/11/07 03:44:46;;;;;;;68.53;45.55;;;230.70;2252.80;;;;;;5097788;28;20016;-78
2021/11/07 03:47:12;;;;;;;80.05;51.83;;;230.70;2252.80;;;;;;5096868;28;20039;-78
2021/11/07 03:49:40;;;;;;;72.50;49.80;;;230.70;2252.80;;;;;;5097532;28;20027;-77
2021/11/07 03:52:07;;;;;;;72.35;49.70;;;230.70;2252.80;;;;;;5116203;28;20035;-78
2021/11/07 03:54:33;;;;;;;74.35;49.28;;;230.70;2252.80;;;;;;5115605;28;20023;-77
2021/11/07 03:57:00;;;;;;;70.55;46.92;;;230.90;2252.80;;;;;;5116091;28;20049;-77
2021/11/07 03:59:27;;;;;;;72.45;48.42;;;230.90;2252.80;;;;;;5097350;28;20030;-77
2021/11/07 04:01:53;;;;;;;67.82;42.80;;;230.90;2252.80;;;;;;5115723;28;20030;-77
2021/11/07 04:04:19;;;;;;;63.22;43.47;;;231.00;2252.80;;;;;;5116046;28;20023;-77
2021/11/07 04:06:46;;;;;;;69.53;42.45;;;231.10;2252.80;;;;;;5115843;28;20106;-77
2021/11/07 04:09:12;;;;;;;64.82;42.13;;;231.20;2252.80;;;;;;5115620;28;20028;-78
2021/11/07 04:11:39;;;;;;;67.75;42.47;;;231.20;2252.80;;;;;;5097148;28;20034;-76
2021/11/07 04:14:07;;;;;;;68.20;44.80;;;231.30;2252.80;;;;;;5097488;28;20111;-77
2021/11/07 04:16:35;;;;;;;89.95;55.88;;;231.20;2252.80;;;;;;5115231;28;20051;-77
2021/11/07 04:19:01;;;;;;;85.90;58.78;;;231.00;2252.80;;;;;;5115843;28;20426;-77
2021/11/07 04:21:27;;;;;;;103.47;65.97;;;231.00;2252.80;;;;;;5096579;28;20023;-77
2021/11/07 04:23:53;;;;;;;101.40;65.13;;;231.00;2252.80;;;;;;5097008;28;20042;-77
2021/11/07 04:26:21;;;;;;;91.03;54.58;;;231.00;2252.80;;;;;;5115635;28;20030;-77
2021/11/07 04:28:47;;;;;;;81.60;49.53;;;231.00;2252.80;;;;;;5096908;28;20421;-77
2021/11/07 04:31:13;;;;;;;75.47;46.95;;;231.10;2252.80;;;;;;5095309;28;20032;-76
2021/11/07 04:33:39;;;;;;;76.53;48.38;;;231.10;2252.80;;;;;;5096254;28;20038;-77
2021/11/07 04:36:06;;;;;;;77.75;46.20;;;231.20;2252.80;;;;;;5114476;28;20035;-76
2021/11/07 04:38:34;;;;;;;79.03;50.88;;;231.30;2252.80;;;;;;5114825;28;20027;-77
2021/11/07 04:41:00;;;;;;;81.03;53.45;;;256.00;2252.80;;;;;;5096700;28;20023;-77
2021/11/07 04:43:26;;;;;;;83.78;55.17;;;231.30;2252.80;;;;;;5096219;28;20583;-78
2021/11/07 04:45:52;;;;;;;77.70;50.95;;;256.00;2252.80;;;;;;5114868;28;20034;-77
2021/11/07 04:48:19;;;;;;;72.03;48.40;;;256.00;2252.80;;;;;;5114990;28;20042;-77
2021/11/07 04:50:46;;;;;;;74.43;47.00;;;256.00;2252.80;;;;;;5096123;28;20050;-76
2021/11/07 04:53:13;;;;;;;71.30;46.88;;;256.00;2252.80;;;;;;5095982;28;20056;-77
2021/11/07 04:55:42;;;;;;;67.30;42.55;;;256.10;2252.80;;;;;;5096073;28;20548;-77
2021/11/07 04:58:09;;;;;;;64.20;41.70;;;256.10;2252.80;;;;;;5114433;28;20547;-77
2021/11/07 05:00:37;;;;;;;63.65;45.13;;;256.00;2252.80;;;;;;5114839;28;20069;-77
2021/11/07 05:03:05;;;;;;;66.68;44.75;;;256.00;2252.80;;;;;;5096503;28;20537;-77
2021/11/07 05:05:32;;;;;;;77.40;46.63;;;256.00;2252.80;;;;;;5096278;28;20093;-77
2021/11/07 05:07:58;;;;;;;77.20;49.75;;;256.00;2252.80;;;;;;5096114;28;20479;-77
2021/11/07 05:10:26;;;;;;;83.85;50.50;;;231.30;2252.80;;;;;;5096334;28;20388;-77
2021/11/07 05:12:52;;;;;;;81.38;50.92;;;256.00;2252.80;;;;;;5114445;28;20020;-77
2021/11/07 05:15:18;;;;;;;81.07;53.13;;;256.10;2252.80;;;;;;5094015;28;20019;-76
2021/11/07 05:17:45;;;;;;;81.43;50.88;;;256.10;2252.80;;;;;;5075773;28;20025;-77
2021/11/07 05:20:12;;;;;;;74.57;50.08;;;256.00;2252.80;;;;;;5093812;28;20032;-76
2021/11/07 05:22:39;;;;;;;89.07;52.88;;;256.00;2252.80;;;;;;5093392;28;20016;-76
2021/11/07 05:25:07;;;;;;;78.88;47.40;;;256.00;2252.80;;;;;;5090761;28;20035;-76
2021/11/07 05:27:34;;;;;;;79.72;49.83;;;256.00;2252.80;;;;;;5093854;28;20491;-76
2021/11/07 05:30:01;;;;;;;77.07;49.90;;;231.30;2252.80;;;;;;5093871;28;20118;-77
2021/11/07 05:32:27;;;;;;;78.47;50.30;;;231.30;2252.80;;;;;;5094162;28;20030;-76
2021/11/07 05:34:52;;;;;;;76.70;48.50;;;231.30;2252.80;;;;;;5112423;28;20023;-76
2021/11/07 05:37:18;;;;;;;78.35;50.28;;;231.30;2252.80;;;;;;5114153;28;20111;-77
2021/11/07 05:39:44;;;;;;;85.28;53.17;;;256.00;2252.80;;;;;;5113517;28;20028;-76
2021/11/07 05:42:10;;;;;;;81.50;52.13;;;231.30;2252.80;;;;;;5113276;28;20024;-77
2021/11/07 05:44:37;;;;;;;81.05;50.47;;;231.30;2252.80;;;;;;5095564;28;20126;-77
2021/11/07 05:47:04;;;;;;;77.32;47.65;;;256.00;2252.80;;;;;;5095511;28;20110;-77
2021/11/07 05:49:29;;;;;;;70.40;44.78;;;256.10;2252.80;;;;;;5095370;28;20024;-77
2021/11/07 05:51:55;;;;;;;82.40;49.97;;;256.00;2252.80;;;;;;5095736;28;20031;-77
2021/11/07 05:54:21;;;;;;;83.50;49.53;;;256.00;2252.80;;;;;;5113731;28;20023;-77
2021/11/07 05:56:48;;;;;;;81.75;50.25;;;231.30;2252.80;;;;;;5113750;28;20026;-76
2021/11/07 05:59:14;;;;;;;81.15;49.97;;;231.30;2252.80;;;;;;5095622;28;20019;-77
2021/11/07 06:01:40;;;;;;;74.95;48.88;;;231.20;2252.80;;;;;;5082436;28;20476;-77
2021/11/07 06:04:06;;;;;;;75.10;45.00;;;256.00;2252.80;;;;;;5073810;28;20032;-77
2021/11/07 06:06:33;;;;;;;78.15;50.28;;;256.00;2252.80;;;;;;5074448;28;20031;-77
2021/11/07 06:09:00;;;;;;;82.85;49.58;;;256.00;2252.80;;;;;;5074812;28;20434;-78
2021/11/07 06:11:26;;;;;;;82.55;50.88;;;231.30;2252.80;;;;;;5092881;28;20023;-77
2021/11/07 06:13:52;;;;;;;78.80;48.80;;;231.20;2252.80;;;;;;5078843;28;20024;-77
2021/11/07 06:16:18;;;;;;;77.20;47.95;;;231.30;2252.80;;;;;;5094430;28;20131;-77
2021/11/07 06:18:44;;;;;;;70.00;46.95;;;256.00;2252.80;;;;;;5113076;28;20023;-77
2021/11/07 06:21:11;;;;;;;85.68;46.88;;;256.10;2252.80;;;;;;5113277;28;20024;-77
2021/11/07 06:23:37;;;;;;;75.18;44.13;;;231.30;2252.80;;;;;;5093147;28;20034;-76
2021/11/07 06:26:04;;;;;;;82.68;43.55;;;231.20;2252.80;;;;;;5074312;28;20103;-77
2021/11/07 06:28:30;;;;;;;77.20;44.70;;;231.20;2252.80;;;;;;5102621;28;20026;-76
2021/11/07 06:31:02;;;;;;;76.10;46.15;;;231.30;2252.80;;;;;;5094768;28;20020;-77
2021/11/07 06:33:27;;;;;;;76.75;43.70;;;256.00;2252.80;;;;;;5094795;28;20024;-77
2021/11/07 06:35:53;;;;;;;75.20;44.10;;;256.00;2252.80;;;;;;5113083;28;20024;-77
2021/11/07 06:38:19;;;;;;;83.57;48.67;;;256.00;2252.80;;;;;;5112797;28;20384;-78
2021/11/07 06:40:45;;;;;;;82.20;50.47;;;256.00;2252.80;;;;;;5112961;28;20055;-77
2021/11/07 06:43:10;;;;;;;84.60;47.92;;;256.10;2252.80;;;;;;5112436;28;20030;-77
2021/11/07 06:45:36;;;;;;;77.72;44.97;;;256.30;2252.80;;;;;;5094145;28;20118;-78
2021/11/07 06:48:03;;;;;;;72.70;42.65;;;256.20;2252.80;;;;;;5092938;28;20034;-77
2021/11/07 06:50:28;;;;;;;64.95;44.28;;;256.20;2252.80;;;;;;5083746;28;20066;-77
2021/11/07 06:52:54;;;;;;;68.90;41.95;;;256.20;2252.80;;;;;;5102450;28;20043;-77
2021/11/07 06:55:20;;;;;;;67.22;41.58;;;256.30;2252.80;;;;;;5101290;28;20515;-76
2021/11/07 06:57:47;;;;;;;61.83;39.20;;;256.40;2252.80;;;;;;5101087;28;20533;-77
2021/11/07 07:00:17;;;;;;;66.68;39.75;;;256.50;2252.80;;;;;;5085975;28;20024;-77
2021/11/07 07:02:43;;;;;;;66.65;41.20;;;256.40;2252.80;;;;;;5084505;28;20028;-76
2021/11/07 07:05:11;;;;;;;89.95;51.42;;;256.30;2252.80;;;;;;5088001;28;20108;-77
2021/11/07 07:07:40;;;;;;;86.03;54.72;;;256.30;2252.80;;;;;;5100475;28;20046;-76
2021/11/07 07:10:10;;;;;;;81.97;50.13;;;256.40;2252.80;;;;;;5085369;28;20020;-77
2021/11/07 07:13:15;;;;;;;75.53;46.42;;;256.50;2252.80;;;;;;5084912;28;20024;-76
2021/11/07 07:15:36;;;;;;;67.28;42.45;;;256.50;2252.80;;;;;;5099173;28;20039;-77
2021/11/07 07:20:51;;;;;;;69.45;43.42;;;256.60;2252.80;;;;;;5104642;28;20110;-77
2021/11/07 07:34:26;;;;;;;62.45;42.20;;;256.80;2252.80;;;;;;5043800;28;20533;-76
2021/11/07 07:36:54;;;;;;;51.97;35.88;;;256.80;2252.80;;;;;;5028337;28;20114;-77
2021/11/07 07:39:20;;;;;;;55.03;36.53;;;256.80;2252.80;;;;;;5042478;28;20017;-77
2021/11/07 07:41:47;;;;;;;56.75;37.55;;;256.60;2252.80;;;;;;5043196;28;20025;-80
2021/11/07 07:44:14;;;;;;;54.78;37.33;;;256.80;2252.80;;;;;;5035950;28;20120;-77
2021/11/07 07:46:43;;;;;;;52.45;35.72;;;256.80;2252.80;;;;;;5025308;28;20041;-77
2021/11/07 07:49:12;;;;;;;52.35;34.80;;;256.90;2252.80;;;;;;5044487;28;20087;-77
2021/11/07 07:51:37;;;;;;;57.15;38.15;;;281.60;2278.40;;;;;;5038670;28;20036;-76
2021/11/07 07:54:05;;;;;;;54.33;37.90;;;281.70;2278.40;;;;;;5017877;28;20120;-76
2021/11/07 07:56:32;;;;;;;52.47;36.60;;;281.70;2278.40;;;;;;5041889;28;20508;-77
2021/11/07 07:58:59;;;;;;;59.17;37.47;;;281.60;2278.40;;;;;;5042148;28;20029;-77
2021/11/07 08:01:24;;;;;;;54.55;37.63;;;281.70;2278.40;;;;;;5042259;28;20064;-77
2021/11/07 08:03:51;;;;;;;61.47;39.55;;;281.70;2278.40;;;;;;5041121;28;20057;-77
2021/11/07 08:06:18;;;;;;;59.90;41.35;;;281.60;2278.40;;;;;;5043530;28;20410;-77
2021/11/07 08:08:43;;;;;;;61.08;39.97;;;281.80;2278.40;;;;;;5072536;28;20036;-77
2021/11/07 08:11:09;;;;;;;58.72;39.67;;;281.80;2278.40;;;;;;5094870;28;20036;-77
2021/11/07 08:13:35;;;;;;;53.38;35.47;;;281.70;2278.40;;;;;;5101778;28;20100;-78
2021/11/07 08:16:01;;;;;;;50.97;35.30;;;281.70;2278.40;;;;;;5085899;28;20044;-78
2021/11/07 08:18:27;;;;;;;57.08;37.22;;;281.70;2278.40;;;;;;5089711;28;20036;-78
2021/11/07 08:20:52;;;;;;;53.88;37.53;;;256.80;2252.80;;;;;;5107700;28;20102;-77
2021/11/07 08:23:22;;;;;;;56.70;36.08;;;281.60;2278.40;;;;;;5088808;28;20047;-77
2021/11/07 08:25:48;;;;;;;58.22;35.08;;;256.90;2252.80;;;;;;5106204;28;20123;-77
2021/11/07 08:28:18;;;;;;;54.83;35.75;;;256.80;2252.80;;;;;;5104357;28;20026;-77
2021/11/07 08:30:45;;;;;;;65.90;41.90;;;256.70;2252.80;;;;;;5086960;28;20071;-77
2021/11/07 08:33:11;;;;;;;65.57;38.65;;;256.60;2252.80;;;;;;5105662;28;20032;-77
2021/11/07 08:35:41;;;;;;;65.18;38.20;;;256.60;2252.80;;;;;;5087839;28;20032;-77
2021/11/07 08:38:15;;;;;;;58.65;37.25;;;256.50;2252.80;;;;;;5102273;28;20028;-78
2021/11/07 08:40:50;;;;;;;61.08;37.28;;;256.40;2252.80;;;;;;5082463;28;20882;-78
2021/11/07 09:05:08;;;;;;;78.80;42.85;;;256.50;2252.80;;;;;;5044767;28;20441;-78
2021/11/07 09:10:09;;;;;;;78.10;43.88;;;256.50;2252.80;;;;;;5040939;28;20109;-78
2021/11/07 09:12:35;;;;;;;87.22;48.88;;;256.50;2252.80;;;;;;5041663;28;20025;-78
2021/11/07 09:15:01;;;;;;;79.38;44.45;;;256.50;2252.80;;;;;;5022934;28;20516;-79
2021/11/07 09:17:27;;;;;;;69.10;43.35;;;256.50;2252.80;;;;;;5041473;28;20041;-78
2021/11/07 09:19:55;;;;;;;77.43;43.40;;;256.60;2252.80;;;;;;5043709;28;20038;-79
2021/11/07 09:25:00;;;;;;;67.40;39.08;;;256.90;2252.80;;;;;;5041874;28;20021;-78
2021/11/07 09:30:11;;;;;;;68.45;37.47;;;282.00;2278.40;;;;;;5082727;28;20427;-78
2021/11/07 09:32:54;;;;;;;58.38;35.47;;;282.10;2278.40;;;;;;5084336;28;20115;-77
2021/11/07 09:40:15;;;;;;;68.03;39.90;;;307.30;2304.00;;;;;;5081923;28;20012;-77
2021/11/07 09:51:20;;;;;;;61.90;36.92;;;307.30;2304.00;;;;;;4993949;28;20049;-77
2021/11/07 09:53:54;;;;;;;67.25;37.97;;;307.30;2304.00;;;;;;4992020;28;20507;-76
2021/11/07 09:56:21;;;;;;;62.85;40.50;;;307.50;2304.00;;;;;;4993111;28;20102;-77
2021/11/07 09:58:50;;;;;;;63.22;38.17;;;307.70;2304.00;;;;;;4991419;28;20106;-77
2021/11/07 10:01:17;;;;;;;64.82;35.55;;;307.70;2304.00;;;;;;4989526;28;20034;-77
2021/11/07 10:03:45;;;;;;;62.45;36.08;;;308.10;2304.00;;;;;;4991725;28;20066;-78
2021/11/07 10:06:49;;;;;;;58.30;35.13;;;308.10;2304.00;;;;;;4975325;28;20027;-77
2021/11/07 10:09:38;;;;;;;61.45;36.92;;;332.80;2329.60;;;;;;4919750;29;20619;-78
2021/11/07 10:12:13;;;;;;;61.97;35.88;;;332.80;2329.60;;;;;;4929401;29;20043;-77
2021/11/07 10:15:02;;;;;;;50.70;32.92;;;332.80;2329.60;;;;;;4910297;29;20505;-77
2021/11/07 10:17:53;;;;;;;55.28;33.83;;;332.80;2329.60;;;;;;4930979;29;20134;-77
2021/11/07 10:22:58;;;;;;;56.50;32.00;;;333.00;2329.60;;;;;;4940034;29;20503;-77
2021/11/07 10:25:44;;;;;;;55.75;35.22;;;333.00;2329.60;;;;;;4947944;28;20135;-77
2021/11/07 10:28:19;;;;;;;54.13;34.70;;;333.10;2329.60;;;;;;4970004;28;20080;-77
2021/11/07 10:30:48;;;;;;;54.70;36.20;;;332.80;2329.60;;;;;;4998762;28;20022;-77
2021/11/07 10:34:01;;;;;;;57.65;35.35;;;332.90;2329.60;;;;;;4985395;28;20035;-77
2021/11/07 10:52:38;;;;;;;;;;;333.60;2329.60;;;;;;5106826;28;20031;-77
2021/11/07 10:55:24;;;;;;;85.55;48.92;;;333.50;2329.60;;;;;;5108326;28;20481;-77
2021/11/07 10:57:52;;;;;;;69.43;45.00;;;333.60;2329.60;;;;;;5093311;28;20032;-78
2021/11/07 11:00:33;;;;;;;66.45;42.20;;;358.40;2329.60;;;;;;5112436;28;20157;-78
2021/11/07 11:03:13;;;;;;;63.13;42.55;;;358.40;2329.60;;;;;;5111646;28;20037;-77
2021/11/07 11:05:50;;;;;;;72.95;42.22;;;358.60;2329.60;;;;;;5111685;28;20030;-78
2021/11/07 11:08:27;;;;;;;69.03;45.80;;;358.50;2329.60;;;;;;5112635;28;20020;-79
2021/11/07 11:11:19;;;;;;;78.32;47.65;;;358.60;2329.60;;;;;;5083005;28;20476;-78
2021/11/07 11:42:53;;;;;;;72.55;43.08;;;358.60;2329.60;;;;;;5111719;28;20024;-78
2021/11/07 11:45:23;;;;;;;66.75;42.05;;;333.60;2329.60;;;;;;5093411;28;20502;-78
2021/11/07 11:55:46;;;;;;;79.55;45.63;;;333.20;2329.60;;;;;;5113101;28;20535;-85
2021/11/07 11:58:28;;;;;;;76.65;46.95;;;333.20;2329.60;;;;;;5095232;28;20118;-87
2021/11/07 12:01:00;;;;;;;68.90;43.50;;;333.30;2329.60;;;;;;5095391;28;20047;-87
2021/11/07 12:04:10;;;;;;;69.45;42.42;;;333.20;2329.60;;;;;;5097663;28;20491;-87
2021/11/07 12:09:43;;;;;;;69.15;44.70;;;333.50;2329.60;;;;;;5116141;28;20061;-84
2021/11/07 12:12:29;;;;;;;58.05;37.03;;;333.60;2329.60;;;;;;5077942;28;20024;-84
2021/11/07 12:15:14;;;;;;;67.03;36.25;;;333.50;2329.60;;;;;;5096017;28;20099;-84
2021/11/07 12:17:44;;;;;;;58.38;34.83;;;333.10;2329.60;;;;;;5113778;28;20491;-85
2021/11/07 12:20:39;;;;;;;55.53;35.85;;;333.10;2329.60;;;;;;5098211;28;20027;-83
2021/11/07 12:23:30;;;;;;;59.50;35.60;;;333.10;2329.60;;;;;;5095331;28;20035;-85
2021/11/07 12:25:58;;;;;;;56.97;35.42;;;333.30;2329.60;;;;;;5097608;28;20427;-84
2021/11/07 12:28:45;;;;;;;57.72;34.40;;;333.30;2329.60;;;;;;5080245;28;20024;-85
2021/11/07 12:31:12;;;;;;;53.63;37.00;;;333.30;2329.60;;;;;;5080041;28;20028;-85
2021/11/07 12:33:56;;;;;;;63.75;37.38;;;333.30;2329.60;;;;;;5096356;28;20027;-84
2021/11/07 12:40:31;;;;;;;54.60;36.67;;;333.30;2329.60;;;;;;5097128;28;20602;-85
2021/11/07 12:42:18;;;;;;;56.30;35.63;;;333.40;2329.60;;;;;;5115988;28;20034;-84
2021/11/07 12:44:47;;;;;;;55.60;36.08;;;333.50;2329.60;;;;;;5097317;28;20404;-85
2021/11/07 12:47:14;;;;;;;63.97;40.13;;;333.60;2329.60;;;;;;5097696;28;20118;-84
2021/11/07 12:49:40;;;;;;;53.80;33.88;;;333.00;2329.60;;;;;;5097411;28;20120;-84
2021/11/07 12:52:06;;;;;;;46.47;32.78;;;332.80;2329.60;;;;;;5096449;28;20130;-83
2021/11/07 12:54:41;;;;;;;55.65;34.63;;;308.10;2304.00;;;;;;5115429;28;20055;-84
2021/11/07 12:57:14;;;;;;;57.05;36.63;;;308.00;2304.00;;;;;;5088091;28;20484;-84
2021/11/07 12:59:53;;;;;;;59.88;35.53;;;307.90;2304.00;;;;;;5096246;28;20407;-84
2021/11/07 13:02:28;;;;;;;60.50;36.72;;;307.90;2304.00;;;;;;5089410;28;20035;-82
2021/11/07 13:05:10;;;;;;;57.13;38.15;;;307.90;2304.00;;;;;;5089363;28;20019;-82
2021/11/07 13:21:23;;;;;;;56.95;36.13;;;332.90;2329.60;;;;;;5012957;28;20141;-86
2021/11/07 13:27:07;;;;;;;55.15;36.63;;;308.10;2304.00;;;;;;4954063;28;20131;-85
2021/11/07 13:29:39;;;;;;;53.70;32.95;;;307.80;2304.00;;;;;;4951123;28;20810;-82
2021/11/07 13:35:06;;;;;;;59.95;39.03;;;307.70;2304.00;;;;;;4953806;29;20066;-86
2021/11/07 13:37:39;;;;;;;87.28;48.85;;;307.70;2304.00;;;;;;4954346;28;20039;-86
2021/11/07 13:40:11;;;;;;;70.75;42.70;;;307.60;2304.00;;;;;;4950203;29;20027;-83
2021/11/07 13:42:40;;;;;;;68.75;40.80;;;307.50;2304.00;;;;;;4953101;29;20027;-82
2021/11/07 13:45:11;;;;;;;70.20;43.03;;;307.60;2304.00;;;;;;4953044;28;20531;-82
2021/11/07 13:47:40;;;;;;;71.80;40.95;;;307.60;2304.00;;;;;;4997232;28;20052;-80
2021/11/07 13:50:10;;;;;;;68.53;41.38;;;307.60;2304.00;;;;;;5033525;28;20029;-79
2021/11/07 13:52:39;;;;;;;72.65;40.13;;;307.40;2304.00;;;;;;5032986;28;20087;-80
2021/11/07 13:55:27;;;;;;;64.93;40.33;;;282.50;2278.40;;;;;;5050390;28;20099;-80
2021/11/07 13:57:54;;;;;;;70.07;39.88;;;282.40;2278.40;;;;;;5026548;28;20064;-83
2021/11/07 14:00:25;;;;;;;68.72;39.95;;;282.40;2278.40;;;;;;5033011;28;20032;-80
2021/11/07 14:02:54;;;;;;;72.63;43.22;;;282.40;2278.40;;;;;;5050031;28;20099;-82
2021/11/07 14:05:21;;;;;;;81.50;46.83;;;282.20;2278.40;;;;;;5080982;28;20031;-82
2021/11/07 14:08:03;;;;;;;84.72;47.20;;;282.20;2278.40;;;;;;5080139;28;20042;-82
2021/11/07 14:10:32;;;;;;;73.82;43.97;;;282.10;2278.40;;;;;;5099585;28;20556;-82
2021/11/07 14:12:59;;;;;;;76.85;42.75;;;282.20;2278.40;;;;;;5084020;28;20039;-82
2021/11/07 14:15:30;;;;;;;84.63;49.28;;;281.90;2278.40;;;;;;5103185;28;20077;-82
2021/11/07 14:18:09;;;;;;;83.47;46.03;;;282.00;2278.40;;;;;;5097455;28;20031;-84
2021/11/07 14:20:41;;;;;;;80.78;46.88;;;282.10;2278.40;;;;;;5091066;28;20023;-87
2021/11/07 14:23:48;;;;;;;80.25;47.88;;;282.10;2278.40;;;;;;5087099;28;20122;-85
2021/11/07 14:26:22;;;;;;;100.28;55.75;;;282.00;2278.40;;;;;;5104305;28;20032;-89
2021/11/07 14:36:12;;;;;;;85.20;47.05;;;282.00;2278.40;;;;;;5105045;28;20073;-86
2021/11/07 14:38:41;;;;;;;85.88;45.20;;;281.90;2278.40;;;;;;5083372;28;20028;-86
2021/11/07 14:41:22;;;;;;;86.40;48.42;;;281.70;2278.40;;;;;;5082018;28;20059;-87
2021/11/07 14:46:37;;;;;;;89.88;51.70;;;281.80;2278.40;;;;;;5092139;28;20058;-83
2021/11/07 14:54:54;;;;;;;94.78;53.33;;;281.70;2278.40;;;;;;5084053;28;20035;-80
2021/11/07 15:00:10;;;;;;;119.38;61.58;;;256.90;2252.80;;;;;;5078978;28;20101;-81
2021/11/07 15:02:53;;;;;;;110.63;62.40;;;281.60;2278.40;;;;;;5067643;28;20028;-80
2021/11/07 15:08:19;;;;;;;113.97;59.03;;;281.80;2278.40;;;;;;5071171;28;20020;-81
2021/11/07 15:16:20;;;;;;;125.63;62.47;;;256.90;2252.80;;;;;;5096542;28;20044;-82
2021/11/07 15:19:00;;;;;;;123.60;61.35;;;256.80;2252.80;;;;;;5100194;28;20066;-82
2021/11/07 15:22:01;;;;;;;132.32;64.00;;;256.70;2252.80;;;;;;5087794;28;20034;-83
2021/11/07 15:24:43;;;;;;;114.20;59.67;;;256.70;2252.80;;;;;;5102114;28;20026;-82
2021/11/07 15:27:17;;;;;;;137.00;70.38;;;256.70;2252.80;;;;;;5088216;28;20119;-81